This is the latest recevied weather packets stored in our database for station/object HK4RAU-41. If no packets are shown the sender has not sent any weather packets the latest 1 day(s).
| Time | Temp. | Humidity | Pressure | Rain* | Wind** | Luminosity | Snow |
|---|---|---|---|---|---|---|---|
| 1778174692 | 24.44° C | 49% | 1011 hPa | 0 mm | - | - | - |
| 1778173769 | 24.44° C | 49% | 1011 hPa | 0 mm | - | - | - |
| 1778173396 | 24.44° C | 49% | 1011 hPa | 0 mm | - | - | - |
| 1778172842 | 24.44° C | 51% | 1012 hPa | 0 mm | - | - | - |
| 1778172106 | 23.89° C | 53% | 1012 hPa | 0 mm | - | - | - |
| 1778171547 | 23.89° C | 53% | 1013 hPa | 0 mm | - | - | - |
| 1778171179 | 23.89° C | 53% | 1013 hPa | 0 mm | - | - | - |
| 1778170427 | 23.89° C | 55% | 1013 hPa | 0 mm | - | - | - |
| 1778169686 | 23.89° C | 54% | 1013 hPa | 0 mm | - | - | - |
| 1778169313 | 23.89° C | 54% | 1013 hPa | 0 mm | - | - | - |
| 1778168754 | 23.89° C | 54% | 1013 hPa | 0 mm | - | - | - |
| 1778168381 | 21.67° C | 69% | 1013 hPa | 0 mm | - | - | - |
| 1778168008 | 21.67° C | 69% | 1013 hPa | 0 mm | - | - | - |
| 1778167444 | 21.67° C | 69% | 1014 hPa | 0 mm | - | - | - |
| 1778167071 | 21.67° C | 68% | 1014 hPa | 0 mm | - | - | - |
| 1778166884 | 21.67° C | 68% | 1014 hPa | 0 mm | - | - | - |
| 1778165770 | 21.11° C | 68% | 1014 hPa | 0 mm | - | - | - |
| 1778165588 | 20.56° C | 69% | 1014 hPa | 0 mm | - | - | - |
| 1778165219 | 20.56° C | 69% | 1014 hPa | 0 mm | - | - | - |
| 1778164670 | 20.56° C | 69% | 1014 hPa | 0 mm | - | - | - |
| 1778163756 | 20.56° C | 71% | 1015 hPa | 0 mm | - | - | - |
| 1778162833 | 19.44° C | 75% | 1015 hPa | 0 mm | - | - | - |
| 1778162460 | 18.89° C | 76% | 1015 hPa | 0 mm | - | - | - |
| 1778162090 | 18.89° C | 76% | 1015 hPa | 0 mm | - | - | - |
| 1778161707 | 17.78° C | 82% | 1015 hPa | 0 mm | - | - | - |
* Rain latest hour (hover to see other rain measurements)
** Current wind speed in m/s (hover to see current wind gust speed)